首页
METAR-TAF:

METAR-TAF

机场 :

皮阿尔科国际机场

西班牙港, 特立尼达岛, 千里達及托巴哥

纬度: 10-37N, 经度: 061-21W, 海拔: 12米

当前天气观测

该预报发布于38分钟前的13:00 UTC
风速12节,风向
温度 27°C
湿度 84%
气压 1012 hPa
能见度10公里或以上
少量云层高于1800英尺
多云层高于4000英尺
附近有阵雨

METAR: TTPP 151300Z 10012KT 9999 VCSH FEW018 BKN040 27/24 Q1012 NOSIG RMK VCSH NE QUAD

时间: 09:38 (13:38 UTC)

预报

该预报发布于3小时和38分钟前的10:00 UTC
预报有效从15日的 12点(UTC)到 16日的 12点(UTC)
风速5节,风向
能见度10公里或以上
少量云层高于1600英尺
成为
从 15日的 12点(UTC)到 15日的 14点(UTC)
风速10节,风向东转东南
散云层高于2200英尺
几率 30% :
短暂存在
从 15日的 15点(UTC)到 15日的 20点(UTC)
能見度: 5000
散云层高于1500英尺
散云层高于3500英尺
成为
从 16日的 03点(UTC)到 16日的 04点(UTC)
风速节,风向
少量云层高于1600英尺

TAF: TTPP 151000Z 1512/1612 10005KT 9999 FEW016 BECMG 1512/1514 11010KT SCT022 PROB30 TEMPO 1515/1520 5000 SCT015 SCT035 BECMG 1603/1604 00000KT FEW016

超过4000个机场的气象观测和天气预报(METAR&TAF报告)。

可查询的气象台以黄色和红色小点在地图上表示。

将鼠标移到小点上方,可查看气象台名称。

然后点击查看天气观测和预报。

如需切换地图:点击带黑十字的绿色按钮放大地图;点击带横线的绿色按钮缩小地图;或者点击绿色箭头查看邻近地区的地图。


METAR-TAF: